createdAt,value
2022-09-09T00:00:16.929Z,97.2
2022-09-09T00:01:17.427Z,97.2
2022-09-09T00:02:17.342Z,97.2
2022-09-09T00:03:17.155Z,97.2
2022-09-09T00:04:16.664Z,97.3
2022-09-09T00:05:17.079Z,97.3
2022-09-09T00:06:16.488Z,97.4
2022-09-09T00:07:16.939Z,97.4
2022-09-09T00:08:17.381Z,97.4
2022-09-09T00:09:16.827Z,97.4
2022-09-09T00:10:17.251Z,97.5
2022-09-09T00:11:16.736Z,97.5
2022-09-09T00:12:17.430Z,97.5
2022-09-09T00:13:16.892Z,97.6
2022-09-09T00:14:17.370Z,97.6
2022-09-09T00:15:16.867Z,97.6
2022-09-09T00:16:17.550Z,97.7
2022-09-09T00:17:17.072Z,97.6
2022-09-09T00:18:16.519Z,97.7
2022-09-09T00:19:16.991Z,97.7
2022-09-09T00:20:16.417Z,97.8
2022-09-09T00:21:16.832Z,97.8
2022-09-09T00:22:16.500Z,97.8
2022-09-09T00:23:16.946Z,97.8
2022-09-09T00:24:17.444Z,97.8
2022-09-09T00:25:16.872Z,97.5
2022-09-09T00:26:17.319Z,97.5
2022-09-09T00:27:16.787Z,97.5
2022-09-09T00:28:17.245Z,97.5
2022-09-09T00:29:16.710Z,97.5
2022-09-09T00:30:17.164Z,97.5
2022-09-09T00:31:16.760Z,97.5
2022-09-09T00:32:17.282Z,97.5
2022-09-09T00:33:16.700Z,97.5
2022-09-09T00:34:17.124Z,97.5
2022-09-09T00:35:16.550Z,97.5
2022-09-09T00:36:16.956Z,97.5
2022-09-09T00:37:17.416Z,97.5
2022-09-09T00:38:16.872Z,97.5
2022-09-09T00:39:17.307Z,97.5
2022-09-09T00:40:16.868Z,97.5
2022-09-09T00:41:17.361Z,97.5
2022-09-09T00:42:16.608Z,97.5
2022-09-09T00:43:17.047Z,97.5
2022-09-09T00:44:16.487Z,97.5
2022-09-09T00:45:16.942Z,97.6
2022-09-09T00:46:17.441Z,95.3
2022-09-09T00:47:16.907Z,95.4
2022-09-09T00:48:17.346Z,95.3
2022-09-09T00:49:16.775Z,95.3
2022-09-09T00:50:17.205Z,95.3
2022-09-09T00:51:16.618Z,95.2
2022-09-09T00:52:17.311Z,95.2
2022-09-09T00:53:16.733Z,95.1
2022-09-09T00:54:17.197Z,95.0
2022-09-09T00:55:16.625Z,94.8
2022-09-09T00:56:17.040Z,94.9
2022-09-09T00:57:16.513Z,94.9
2022-09-09T00:58:16.954Z,97.5
2022-09-09T00:59:17.436Z,97.5
2022-09-09T01:00:16.884Z,97.5
2022-09-09T01:01:17.436Z,95.2
2022-09-09T01:02:16.910Z,95.3
2022-09-09T01:03:17.377Z,95.4
2022-09-09T01:04:16.861Z,95.4
2022-09-09T01:05:17.292Z,95.2
2022-09-09T01:06:16.826Z,95.2
2022-09-09T01:07:17.269Z,95.0
2022-09-09T01:08:16.717Z,95.1
2022-09-09T01:09:17.137Z,95.1
2022-09-09T01:10:16.551Z,95.1
2022-09-09T01:11:16.995Z,94.8
2022-09-09T01:12:16.675Z,94.8
2022-09-09T01:13:17.153Z,94.9
2022-09-09T01:14:16.607Z,94.9
2022-09-09T01:15:17.066Z,95.0
2022-09-09T01:16:16.636Z,95.0
2022-09-09T01:17:17.102Z,95.2
2022-09-09T01:18:16.575Z,95.4
2022-09-09T01:19:17.009Z,95.5
2022-09-09T01:20:16.443Z,95.5
2022-09-09T01:21:16.870Z,95.6
2022-09-09T01:22:17.331Z,95.6
2022-09-09T01:23:17.020Z,95.7
2022-09-09T01:24:16.453Z,95.7
2022-09-09T01:25:16.886Z,95.5
2022-09-09T01:26:17.315Z,95.5
2022-09-09T01:27:16.769Z,95.6
2022-09-09T01:28:17.288Z,95.7
2022-09-09T01:29:16.731Z,95.6
2022-09-09T01:30:17.200Z,95.5
2022-09-09T01:31:16.772Z,95.3
2022-09-09T01:32:16.644Z,95.4
2022-09-09T01:33:17.110Z,95.2
2022-09-09T01:34:16.526Z,95.0
2022-09-09T01:35:16.951Z,95.1
2022-09-09T01:36:17.370Z,95.1
2022-09-09T01:37:16.787Z,95.1
2022-09-09T01:38:17.246Z,95.2
2022-09-09T01:39:16.656Z,95.2
2022-09-09T01:40:17.298Z,95.3
2022-09-09T01:41:16.816Z,95.3
2022-09-09T01:42:17.209Z,95.3
2022-09-09T01:43:16.672Z,95.4
2022-09-09T01:44:17.123Z,95.5
2022-09-09T01:45:16.567Z,95.4
2022-09-09T01:46:17.213Z,95.3
2022-09-09T01:47:16.691Z,95.2
2022-09-09T01:48:17.126Z,95.1
2022-09-09T01:49:16.546Z,94.9
2022-09-09T01:50:16.979Z,94.8
2022-09-09T01:51:16.418Z,95.0
2022-09-09T01:52:16.967Z,95.0
2022-09-09T01:53:17.396Z,95.1
2022-09-09T01:54:16.815Z,95.0
2022-09-09T01:55:17.249Z,94.9
2022-09-09T01:56:16.702Z,94.9
2022-09-09T01:57:17.134Z,94.7
2022-09-09T01:58:16.565Z,94.6
2022-09-09T01:59:17.257Z,94.5
2022-09-09T02:00:16.691Z,94.5
2022-09-09T02:01:17.265Z,94.7
2022-09-09T02:02:16.673Z,94.7
2022-09-09T02:03:17.280Z,94.6
2022-09-09T02:04:16.702Z,94.2
2022-09-09T02:05:17.118Z,94.4
2022-09-09T02:06:16.548Z,94.2
2022-09-09T02:07:16.962Z,94.3
2022-09-09T02:08:17.374Z,94.3
2022-09-09T02:09:16.806Z,94.5
2022-09-09T02:10:17.261Z,94.8
2022-09-09T02:11:16.753Z,94.8
2022-09-09T02:12:17.124Z,94.9
2022-09-09T02:13:16.582Z,94.9
2022-09-09T02:14:17.016Z,95.0
2022-09-09T02:15:16.456Z,94.9
2022-09-09T02:16:16.997Z,94.8
2022-09-09T02:17:16.448Z,94.6
2022-09-09T02:18:16.873Z,94.8
2022-09-09T02:19:17.312Z,94.5
2022-09-09T02:20:16.745Z,94.4
2022-09-09T02:21:17.177Z,94.3
2022-09-09T02:22:16.830Z,94.2
2022-09-09T02:23:17.388Z,94.4
2022-09-09T02:24:17.039Z,94.5
2022-09-09T02:25:16.476Z,94.5
2022-09-09T02:26:16.927Z,94.5
2022-09-09T02:27:17.373Z,94.7
2022-09-09T02:28:16.813Z,94.6
2022-09-09T02:29:17.292Z,96.9
2022-09-09T02:30:16.737Z,97.0
2022-09-09T02:31:17.195Z,97.0
2022-09-09T02:32:16.648Z,94.4
2022-09-09T02:33:17.078Z,94.5
2022-09-09T02:34:16.504Z,94.6
2022-09-09T02:35:16.922Z,94.6
2022-09-09T02:36:17.339Z,94.7
2022-09-09T02:37:16.785Z,94.7
2022-09-09T02:38:17.260Z,94.7
2022-09-09T02:39:16.707Z,94.6
2022-09-09T02:40:17.301Z,94.3
2022-09-09T02:41:16.888Z,94.2
2022-09-09T02:42:16.479Z,94.2
2022-09-09T02:43:16.962Z,94.3
2022-09-09T02:44:17.436Z,97.1
2022-09-09T02:45:16.873Z,97.0
2022-09-09T02:46:17.463Z,96.8
2022-09-09T02:47:16.927Z,93.7
2022-09-09T02:48:17.366Z,93.7
2022-09-09T02:49:16.782Z,93.9
2022-09-09T02:50:17.233Z,93.9
2022-09-09T02:51:16.668Z,94.1
2022-09-09T02:52:17.078Z,94.1
2022-09-09T02:53:16.489Z,94.1
2022-09-09T02:54:16.934Z,94.2
2022-09-09T02:55:17.400Z,94.4
2022-09-09T02:56:16.866Z,94.4
2022-09-09T02:57:17.354Z,94.5
2022-09-09T02:58:16.847Z,94.3
2022-09-09T02:59:17.301Z,94.4
2022-09-09T03:00:16.759Z,94.4
2022-09-09T03:01:17.263Z,94.3
2022-09-09T03:02:17.308Z,97.2
2022-09-09T03:03:16.807Z,97.2
2022-09-09T03:04:17.235Z,97.0
2022-09-09T03:05:16.673Z,97.0
2022-09-09T03:06:17.099Z,96.9
2022-09-09T03:07:16.518Z,94.1
2022-09-09T03:08:16.928Z,93.5
2022-09-09T03:09:17.365Z,93.5
2022-09-09T03:10:16.810Z,96.5
2022-09-09T03:11:17.280Z,96.6
2022-09-09T03:12:16.607Z,96.6
2022-09-09T03:13:17.059Z,96.8
2022-09-09T03:14:16.516Z,96.8
2022-09-09T03:15:16.980Z,96.8
2022-09-09T03:16:16.538Z,94.2
2022-09-09T03:17:17.011Z,96.8
2022-09-09T03:18:16.471Z,96.9
2022-09-09T03:19:16.883Z,96.9
2022-09-09T03:20:17.346Z,94.4
2022-09-09T03:21:16.771Z,94.3
2022-09-09T03:22:17.110Z,94.3
2022-09-09T03:23:16.524Z,94.3
2022-09-09T03:24:16.982Z,94.4
2022-09-09T03:25:16.416Z,97.2
2022-09-09T03:26:16.856Z,97.2
2022-09-09T03:27:17.314Z,97.2
2022-09-09T03:28:16.778Z,94.7
2022-09-09T03:29:17.302Z,94.8
2022-09-09T03:30:16.762Z,94.8
2022-09-09T03:31:17.283Z,94.7
2022-09-09T03:32:16.736Z,94.8
2022-09-09T03:33:17.215Z,94.8
2022-09-09T03:34:16.664Z,95.0
2022-09-09T03:35:17.169Z,95.0
2022-09-09T03:36:16.598Z,95.0
2022-09-09T03:37:17.028Z,94.9
2022-09-09T03:38:16.451Z,94.8
2022-09-09T03:39:16.925Z,94.8
2022-09-09T03:40:17.537Z,94.7
2022-09-09T03:41:17.042Z,94.7
2022-09-09T03:42:16.909Z,94.8
2022-09-09T03:43:17.408Z,94.8
2022-09-09T03:44:16.866Z,94.8
2022-09-09T03:45:17.314Z,94.7
2022-09-09T03:46:16.901Z,97.3
2022-09-09T03:47:17.351Z,97.3
2022-09-09T03:48:16.776Z,97.2
2022-09-09T03:49:17.210Z,94.4
2022-09-09T03:50:16.652Z,94.4
2022-09-09T03:51:17.062Z,94.3
2022-09-09T03:52:23.636Z,94.3
2022-09-09T03:53:17.362Z,94.5
2022-09-09T03:54:16.811Z,94.6
2022-09-09T03:55:17.289Z,94.6
2022-09-09T03:56:16.759Z,94.6
2022-09-09T03:57:17.216Z,94.5
2022-09-09T03:58:16.676Z,94.5
2022-09-09T03:59:17.156Z,97.3
2022-09-09T04:00:16.622Z,97.3
2022-09-09T04:01:17.190Z,97.2
2022-09-09T04:02:17.441Z,94.4
2022-09-09T04:03:16.886Z,94.3
2022-09-09T04:04:17.366Z,94.4
2022-09-09T04:05:16.878Z,97.3
2022-09-09T04:06:17.313Z,97.4
2022-09-09T04:07:16.746Z,97.5
2022-09-09T04:08:17.188Z,94.8
2022-09-09T04:09:16.670Z,97.4
2022-09-09T04:10:17.138Z,97.5
2022-09-09T04:11:16.617Z,97.5
2022-09-09T04:12:17.148Z,95.0
2022-09-09T04:13:16.595Z,94.8
2022-09-09T04:14:17.044Z,97.5
2022-09-09T04:15:16.475Z,97.4
2022-09-09T04:16:17.018Z,97.4
2022-09-09T04:17:16.439Z,94.8
2022-09-09T04:18:20.197Z,94.7
2022-09-09T04:19:16.635Z,94.8
2022-09-09T04:20:17.058Z,94.7
2022-09-09T04:21:16.472Z,94.7
2022-09-09T04:22:17.144Z,97.2
2022-09-09T04:23:16.609Z,97.2
2022-09-09T04:24:17.048Z,97.2
2022-09-09T04:25:16.612Z,94.6
2022-09-09T04:26:17.075Z,94.4
2022-09-09T04:27:16.529Z,94.4
2022-09-09T04:28:17.013Z,97.0
2022-09-09T04:29:16.475Z,97.0
2022-09-09T04:30:16.918Z,96.8
2022-09-09T04:31:17.555Z,96.7
2022-09-09T04:32:17.049Z,96.8
2022-09-09T04:33:16.463Z,96.7
2022-09-09T04:34:16.921Z,96.7
2022-09-09T04:35:17.368Z,96.8
2022-09-09T04:36:16.787Z,96.7
2022-09-09T04:37:17.243Z,93.6
2022-09-09T04:38:16.699Z,93.5
2022-09-09T04:39:17.161Z,93.4
2022-09-09T04:40:16.824Z,96.7
2022-09-09T04:41:17.325Z,96.8
2022-09-09T04:42:16.511Z,96.7
2022-09-09T04:43:16.976Z,96.7
2022-09-09T04:44:16.439Z,96.7
2022-09-09T04:45:16.865Z,96.8
2022-09-09T04:46:17.446Z,97.0
2022-09-09T04:47:16.853Z,94.2
2022-09-09T04:48:17.274Z,97.0
2022-09-09T04:49:16.680Z,97.0
2022-09-09T04:50:17.139Z,96.9
2022-09-09T04:51:16.557Z,96.7
2022-09-09T04:52:16.663Z,96.5
2022-09-09T04:53:17.125Z,96.7
2022-09-09T04:54:16.604Z,96.8
2022-09-09T04:55:17.091Z,96.8
2022-09-09T04:56:16.540Z,96.8
2022-09-09T04:57:19.114Z,96.8
2022-09-09T04:58:16.571Z,96.6
2022-09-09T04:59:17.064Z,96.5
2022-09-09T05:00:16.499Z,96.5
2022-09-09T05:01:17.097Z,96.6
2022-09-09T05:02:16.668Z,96.5
2022-09-09T05:03:17.153Z,96.4
2022-09-09T05:04:16.581Z,96.3
2022-09-09T05:05:16.993Z,96.3
2022-09-09T05:06:16.431Z,96.4
2022-09-09T05:07:16.929Z,96.4
2022-09-09T05:08:17.417Z,96.4
2022-09-09T05:09:16.874Z,96.4
2022-09-09T05:10:17.334Z,96.5
2022-09-09T05:11:16.838Z,96.5
2022-09-09T05:12:16.686Z,96.6
2022-09-09T05:13:17.171Z,96.5
2022-09-09T05:14:16.589Z,96.5
2022-09-09T05:15:17.006Z,96.3
2022-09-09T05:16:16.597Z,96.4
2022-09-09T05:17:17.042Z,96.3
2022-09-09T05:18:16.462Z,96.3
2022-09-09T05:19:16.912Z,96.3
2022-09-09T05:20:17.740Z,96.3
2022-09-09T05:21:17.178Z,96.3
2022-09-09T05:22:17.221Z,96.2
2022-09-09T05:23:16.715Z,96.3
2022-09-09T05:24:17.209Z,96.3
2022-09-09T05:25:16.680Z,96.2
2022-09-09T05:26:18.251Z,96.2
2022-09-09T05:27:16.746Z,96.1
2022-09-09T05:28:17.204Z,96.1
2022-09-09T05:29:16.637Z,96.1
2022-09-09T05:30:17.062Z,96.1
2022-09-09T05:31:16.632Z,96.0
2022-09-09T05:32:17.098Z,95.9
2022-09-09T05:33:16.554Z,95.8
2022-09-09T05:34:17.102Z,95.8
2022-09-09T05:35:16.581Z,95.8
2022-09-09T05:36:17.047Z,95.8
2022-09-09T05:37:16.537Z,95.8
2022-09-09T05:38:17.021Z,95.8
2022-09-09T05:39:16.484Z,95.7
2022-09-09T05:40:17.098Z,95.6
2022-09-09T05:41:16.720Z,95.6
2022-09-09T05:42:16.889Z,95.5
2022-09-09T05:43:17.307Z,95.4
2022-09-09T05:44:16.725Z,95.4
2022-09-09T05:45:17.153Z,95.2
2022-09-09T05:46:16.716Z,95.1
2022-09-09T05:47:17.170Z,95.2
2022-09-09T05:48:16.609Z,95.2
2022-09-09T05:49:17.036Z,95.2
2022-09-09T05:50:16.479Z,95.2
2022-09-09T05:51:16.933Z,95.1
2022-09-09T05:52:16.591Z,95.0
2022-09-09T05:53:17.067Z,95.2
2022-09-09T05:54:16.537Z,95.0
2022-09-09T05:55:17.014Z,95.0
2022-09-09T05:56:16.458Z,94.8
2022-09-09T05:57:16.870Z,94.8
2022-09-09T05:58:17.298Z,95.0
2022-09-09T05:59:16.715Z,95.0
2022-09-09T06:00:17.134Z,94.9
2022-09-09T06:01:16.581Z,94.9
2022-09-09T06:02:16.677Z,95.0
2022-09-09T06:03:17.300Z,94.8
2022-09-09T06:04:16.809Z,94.6
2022-09-09T06:05:17.269Z,94.5
2022-09-09T06:06:16.703Z,94.2
2022-09-09T06:07:17.210Z,94.0
2022-09-09T06:08:16.644Z,94.0
2022-09-09T06:09:17.104Z,94.0
2022-09-09T06:10:16.520Z,94.1
2022-09-09T06:11:16.971Z,94.2
2022-09-09T06:12:16.694Z,94.2
2022-09-09T06:13:17.118Z,93.6
2022-09-09T06:14:16.538Z,93.5
2022-09-09T06:15:16.956Z,93.4
2022-09-09T06:16:17.490Z,93.4
2022-09-09T06:17:17.002Z,93.4
2022-09-09T06:18:16.467Z,93.2
2022-09-09T06:19:16.953Z,93.5
2022-09-09T06:20:17.414Z,93.0
2022-09-09T06:21:16.896Z,92.8
2022-09-09T06:22:17.164Z,92.7
2022-09-09T06:23:16.630Z,92.8
2022-09-09T06:24:17.071Z,92.2
2022-09-09T06:25:16.489Z,92.4
2022-09-09T06:26:16.901Z,92.0
2022-09-09T06:27:17.363Z,91.5
2022-09-09T06:28:16.779Z,91.3
2022-09-09T06:29:17.224Z,90.7
2022-09-09T06:30:16.676Z,90.4
2022-09-09T06:31:17.194Z,89.5
2022-09-09T06:32:16.570Z,89.4
2022-09-09T06:33:17.027Z,89.1
2022-09-09T06:34:16.469Z,89.2
2022-09-09T06:35:16.915Z,89.2
2022-09-09T06:36:17.382Z,89.5
2022-09-09T06:37:16.841Z,89.1
2022-09-09T06:38:17.267Z,89.3
2022-09-09T06:39:16.988Z,89.1
2022-09-09T06:40:16.587Z,89.5
2022-09-09T06:41:17.058Z,89.2
2022-09-09T06:42:16.617Z,88.8
2022-09-09T06:43:17.058Z,88.7
2022-09-09T06:44:16.563Z,88.6
2022-09-09T06:45:16.982Z,88.8
2022-09-09T06:46:16.614Z,89.2
2022-09-09T06:47:17.062Z,88.8
2022-09-09T06:48:16.552Z,89.3
2022-09-09T06:49:17.031Z,88.7
2022-09-09T06:50:16.482Z,88.2
2022-09-09T06:51:16.952Z,87.9
2022-09-09T06:52:17.229Z,87.3
2022-09-09T06:53:16.654Z,87.2
2022-09-09T06:54:17.077Z,87.0
2022-09-09T06:55:16.489Z,87.0
2022-09-09T06:56:18.210Z,86.4
2022-09-09T06:57:36.755Z,86.6
2022-09-09T06:58:16.726Z,86.1
2022-09-09T06:59:17.153Z,86.3
2022-09-09T07:00:16.619Z,85.8
2022-09-09T07:01:17.276Z,86.0
2022-09-09T07:02:17.494Z,85.8
2022-09-09T07:03:17.001Z,85.4
2022-09-09T07:04:16.478Z,85.7
2022-09-09T07:05:16.935Z,85.9
2022-09-09T07:06:17.421Z,85.6
2022-09-09T07:07:16.833Z,84.8
2022-09-09T07:08:17.273Z,84.7
2022-09-09T07:09:16.710Z,84.2
2022-09-09T07:10:17.178Z,84.8
2022-09-09T07:11:16.591Z,84.5
2022-09-09T07:12:16.553Z,85.0
2022-09-09T07:13:16.995Z,84.5
2022-09-09T07:14:16.410Z,84.2
2022-09-09T07:15:16.858Z,84.7
2022-09-09T07:16:17.387Z,84.1
2022-09-09T07:17:16.871Z,83.7
2022-09-09T07:18:17.346Z,82.9
2022-09-09T07:19:16.906Z,83.0
2022-09-09T07:20:17.357Z,83.0
2022-09-09T07:21:16.787Z,83.2
2022-09-09T07:22:16.663Z,83.6
2022-09-09T07:23:17.137Z,83.2
2022-09-09T07:24:16.562Z,82.9
2022-09-09T07:25:16.975Z,82.4
2022-09-09T07:26:17.417Z,82.4
2022-09-09T07:27:16.884Z,81.9
2022-09-09T07:28:17.301Z,81.4
2022-09-09T07:29:21.339Z,80.8
2022-09-09T07:30:27.515Z,79.5
2022-09-09T07:31:17.388Z,79.0
2022-09-09T07:32:16.869Z,78.5
2022-09-09T07:33:17.315Z,78.2
2022-09-09T07:34:16.761Z,78.0
2022-09-09T07:35:17.208Z,77.5
2022-09-09T07:36:16.664Z,77.3
2022-09-09T07:37:17.089Z,76.9
2022-09-09T07:38:16.539Z,77.3
2022-09-09T07:39:16.963Z,77.1
2022-09-09T07:40:17.453Z,76.7
2022-09-09T07:41:16.958Z,75.7
2022-09-09T07:42:16.892Z,75.8
2022-09-09T07:43:17.637Z,75.6
2022-09-09T07:44:17.082Z,75.3
2022-09-09T07:45:16.525Z,74.8
2022-09-09T07:46:17.070Z,74.9
2022-09-09T07:47:16.531Z,74.8
2022-09-09T07:48:16.977Z,74.3
2022-09-09T07:49:16.425Z,73.5
2022-09-09T07:50:16.895Z,73.1
2022-09-09T07:51:17.312Z,72.9
2022-09-09T07:52:20.332Z,72.0
2022-09-09T07:53:17.184Z,73.2
2022-09-09T07:54:16.632Z,71.7
2022-09-09T07:55:17.095Z,71.1
2022-09-09T07:56:16.506Z,71.5
2022-09-09T07:57:16.936Z,72.7
2022-09-09T07:58:17.365Z,72.9
2022-09-09T07:59:16.814Z,73.5
2022-09-09T08:00:17.284Z,73.0
2022-09-09T08:01:16.809Z,73.8
2022-09-09T08:02:16.862Z,74.4
2022-09-09T08:03:17.431Z,73.9
2022-09-09T08:04:16.913Z,74.2
2022-09-09T08:05:17.355Z,74.8
2022-09-09T08:06:16.797Z,74.8
2022-09-09T08:07:17.214Z,75.2
2022-09-09T08:08:16.648Z,75.3
2022-09-09T08:09:17.091Z,75.4
2022-09-09T08:10:16.540Z,75.8
2022-09-09T08:11:16.954Z,76.1
2022-09-09T08:12:16.545Z,75.6
2022-09-09T08:13:19.018Z,76.1
2022-09-09T08:14:16.536Z,75.5
2022-09-09T08:15:17.006Z,75.7
2022-09-09T08:16:16.577Z,75.4
2022-09-09T08:17:17.095Z,74.4
2022-09-09T08:18:16.573Z,74.1
2022-09-09T08:19:17.031Z,75.3
2022-09-09T08:20:16.528Z,75.9
2022-09-09T08:21:16.966Z,74.7
2022-09-09T08:22:16.467Z,75.9
2022-09-09T08:23:16.909Z,73.7
2022-09-09T08:24:17.372Z,72.1
2022-09-09T08:25:16.793Z,71.1
2022-09-09T08:26:17.245Z,70.9
2022-09-09T08:27:16.696Z,70.4
2022-09-09T08:28:17.133Z,71.2
2022-09-09T08:29:16.615Z,69.8
2022-09-09T08:30:17.098Z,69.6
2022-09-09T08:31:16.805Z,69.6
2022-09-09T08:32:17.324Z,69.0
2022-09-09T08:33:16.767Z,68.9
2022-09-09T08:34:17.194Z,68.8
2022-09-09T08:35:16.610Z,68.3
2022-09-09T08:36:17.040Z,68.0
2022-09-09T08:37:16.497Z,68.4
2022-09-09T08:38:16.958Z,67.8
2022-09-09T08:39:17.406Z,66.9
2022-09-09T08:40:16.973Z,66.5
2022-09-09T08:41:16.442Z,67.0
2022-09-09T08:42:17.008Z,67.3
2022-09-09T08:43:16.464Z,66.5
2022-09-09T08:44:17.063Z,66.8
2022-09-09T08:45:16.565Z,66.3
2022-09-09T08:46:17.168Z,66.4
2022-09-09T08:47:16.669Z,66.4
2022-09-09T08:48:17.172Z,66.7
2022-09-09T08:49:16.612Z,66.6
2022-09-09T08:50:17.204Z,65.8
2022-09-09T08:51:16.660Z,65.6
2022-09-09T08:52:16.938Z,65.3
2022-09-09T08:53:17.375Z,64.8
2022-09-09T08:54:48.691Z,65.7
2022-09-09T08:55:17.295Z,63.6
2022-09-09T08:56:16.740Z,63.5
2022-09-09T08:57:17.190Z,63.5
2022-09-09T08:58:16.653Z,63.0
2022-09-09T08:59:17.132Z,62.8
2022-09-09T09:00:16.717Z,63.7
2022-09-09T09:01:17.305Z,63.0
2022-09-09T09:02:17.305Z,63.3
2022-09-09T09:03:16.800Z,63.9
2022-09-09T09:04:17.287Z,64.2
2022-09-09T09:05:16.743Z,62.5
2022-09-09T09:06:17.155Z,62.6
2022-09-09T09:07:16.594Z,63.3
2022-09-09T09:08:17.010Z,63.5
2022-09-09T09:09:16.441Z,63.2
2022-09-09T09:10:40.297Z,62.9
2022-09-09T09:11:16.977Z,63.3
2022-09-09T09:12:16.899Z,63.2
2022-09-09T09:13:17.352Z,64.2
2022-09-09T09:14:16.955Z,63.5
2022-09-09T09:15:16.444Z,63.4
2022-09-09T09:16:17.027Z,62.9
2022-09-09T09:17:16.519Z,61.4
2022-09-09T09:18:16.954Z,61.6
2022-09-09T09:19:17.420Z,62.0
2022-09-09T09:20:16.837Z,62.0
2022-09-09T09:21:17.263Z,62.3
2022-09-09T09:22:16.788Z,62.7
2022-09-09T09:23:17.222Z,63.0
2022-09-09T09:24:22.189Z,62.6
2022-09-09T09:25:16.676Z,62.2
2022-09-09T09:26:17.118Z,63.6
2022-09-09T09:27:16.568Z,62.3
2022-09-09T09:28:17.025Z,63.0
2022-09-09T09:29:16.481Z,62.7
2022-09-09T09:30:30.501Z,61.6
2022-09-09T09:31:17.584Z,60.2
2022-09-09T09:32:16.936Z,60.4
2022-09-09T09:33:17.350Z,60.9
2022-09-09T09:34:16.779Z,62.0
2022-09-09T09:35:17.200Z,62.4
2022-09-09T09:36:16.614Z,62.3
2022-09-09T09:37:17.076Z,62.9
2022-09-09T09:40:16.464Z,63.3
2022-09-09T09:41:16.934Z,62.7
2022-09-09T09:42:23.726Z,62.1
2022-09-09T09:43:17.335Z,61.6
2022-09-09T09:44:16.776Z,60.7
2022-09-09T09:45:17.854Z,60.8
2022-09-09T09:46:18.492Z,62.4
2022-09-09T09:47:16.994Z,61.3
2022-09-09T09:48:16.419Z,61.2
2022-09-09T09:49:16.835Z,61.1
2022-09-09T09:50:17.255Z,59.9
2022-09-09T09:51:16.710Z,59.8
2022-09-09T09:52:16.700Z,59.0
2022-09-09T09:53:17.106Z,58.7
2022-09-09T09:54:16.531Z,58.8
2022-09-09T09:55:16.967Z,59.0
2022-09-09T09:56:17.419Z,58.6
2022-09-09T09:57:16.911Z,59.1
2022-09-09T09:58:18.985Z,59.7
2022-09-09T10:00:17.269Z,60.8
2022-09-09T10:01:17.014Z,61.4
2022-09-09T10:02:17.138Z,61.6
2022-09-09T10:03:16.575Z,61.2
2022-09-09T10:04:17.116Z,60.6
2022-09-09T10:05:16.583Z,60.2
2022-09-09T10:06:17.014Z,60.6
2022-09-09T10:07:16.466Z,61.3
2022-09-09T10:08:16.906Z,61.0
2022-09-09T10:09:17.392Z,62.2
2022-09-09T10:10:16.862Z,61.2
2022-09-09T10:11:17.321Z,62.4
2022-09-09T10:12:16.978Z,62.8
2022-09-09T10:13:16.580Z,62.8
2022-09-09T10:14:17.083Z,62.0
2022-09-09T10:15:16.581Z,62.2
2022-09-09T10:16:17.159Z,62.5
2022-09-09T10:17:16.650Z,63.3
2022-09-09T10:18:17.071Z,63.8
2022-09-09T10:19:16.508Z,63.1
2022-09-09T10:20:16.936Z,62.5
2022-09-09T10:21:17.351Z,63.0
2022-09-09T10:22:16.988Z,62.2
2022-09-09T10:23:16.444Z,62.1
2022-09-09T10:24:16.895Z,61.4
2022-09-09T10:25:17.358Z,61.5
2022-09-09T10:26:16.830Z,61.0
2022-09-09T10:27:17.268Z,60.8
2022-09-09T10:28:16.725Z,60.7
2022-09-09T10:29:17.275Z,60.6
2022-09-09T10:30:16.761Z,60.3
2022-09-09T10:31:17.407Z,60.0
2022-09-09T10:32:16.647Z,60.2
2022-09-09T10:33:17.082Z,59.8
2022-09-09T10:34:16.492Z,60.0
2022-09-09T10:35:17.067Z,60.2
2022-09-09T10:36:16.550Z,59.4
2022-09-09T10:37:16.979Z,58.7
2022-09-09T10:38:16.405Z,58.1
2022-09-09T10:39:16.852Z,58.1
2022-09-09T10:40:17.393Z,58.4
2022-09-09T10:41:16.903Z,58.6
2022-09-09T10:42:17.326Z,59.0
2022-09-09T10:43:16.796Z,61.0
2022-09-09T10:44:17.264Z,60.3
2022-09-09T10:45:16.726Z,60.9
2022-09-09T10:46:17.252Z,61.2
2022-09-09T10:47:16.684Z,62.2
2022-09-09T10:48:17.136Z,63.0
2022-09-09T10:49:22.948Z,62.9
2022-09-09T10:50:16.648Z,62.3
2022-09-09T10:51:17.061Z,62.5
2022-09-09T10:52:16.737Z,62.6
2022-09-09T10:53:17.149Z,62.4
2022-09-09T10:54:16.618Z,63.3
2022-09-09T10:55:17.072Z,63.4
2022-09-09T10:56:16.549Z,63.3
2022-09-09T10:57:17.012Z,63.0
2022-09-09T10:58:16.516Z,63.6
2022-09-09T10:59:17.014Z,63.9
2022-09-09T11:00:16.475Z,65.9
2022-09-09T11:01:17.056Z,64.3
2022-09-09T11:02:16.762Z,65.8
2022-09-09T11:03:17.189Z,65.0
2022-09-09T11:04:16.741Z,64.5
2022-09-09T11:05:17.221Z,64.5
2022-09-09T11:06:16.900Z,64.6
2022-09-09T11:07:17.341Z,64.8
2022-09-09T11:08:16.948Z,64.8
2022-09-09T11:09:16.417Z,64.0
2022-09-09T11:10:16.902Z,63.6
2022-09-09T11:11:17.363Z,63.8
2022-09-09T11:12:16.624Z,62.6
2022-09-09T11:13:17.069Z,62.8
2022-09-09T11:14:16.526Z,62.5
2022-09-09T11:15:16.997Z,62.5
2022-09-09T11:16:16.543Z,62.8
2022-09-09T11:17:16.966Z,62.6
2022-09-09T11:18:17.393Z,62.1
2022-09-09T11:19:16.806Z,62.8
2022-09-09T11:20:17.225Z,60.9
2022-09-09T11:21:16.679Z,61.0
2022-09-09T11:22:16.689Z,60.1
2022-09-09T11:23:17.175Z,61.4
2022-09-09T11:24:16.695Z,60.6
2022-09-09T11:25:17.350Z,60.9
2022-09-09T11:26:16.820Z,60.0
2022-09-09T11:27:17.291Z,58.3
2022-09-09T11:28:16.762Z,57.8
2022-09-09T11:29:17.211Z,57.6
2022-09-09T11:30:51.578Z,58.1
2022-09-09T11:31:17.136Z,57.4
2022-09-09T11:32:16.509Z,58.0
2022-09-09T11:33:16.925Z,57.8
2022-09-09T11:34:17.362Z,58.3
2022-09-09T11:35:16.819Z,58.4
2022-09-09T11:36:17.235Z,58.4
2022-09-09T11:37:16.664Z,57.7
2022-09-09T11:38:17.121Z,57.8
2022-09-09T11:39:16.610Z,57.9
2022-09-09T11:40:17.063Z,57.6
2022-09-09T11:41:21.863Z,58.2
2022-09-09T11:42:17.391Z,57.0
2022-09-09T11:43:16.914Z,57.2
2022-09-09T11:44:17.397Z,58.2
2022-09-09T11:45:16.820Z,57.6
2022-09-09T11:46:17.352Z,57.0
2022-09-09T11:47:16.801Z,57.2
2022-09-09T11:48:17.224Z,55.3
2022-09-09T11:49:16.669Z,55.3
2022-09-09T11:50:17.083Z,56.1
2022-09-09T11:51:17.512Z,57.0
2022-09-09T11:52:17.230Z,56.0
2022-09-09T11:53:16.709Z,56.2
2022-09-09T11:54:17.157Z,57.0
2022-09-09T11:55:16.603Z,58.3
2022-09-09T11:56:17.045Z,59.0
2022-09-09T11:57:16.563Z,58.7
2022-09-09T11:58:17.070Z,58.3
2022-09-09T11:59:16.548Z,59.2
2022-09-09T12:00:16.983Z,58.4
2022-09-09T12:01:16.392Z,58.4
2022-09-09T12:02:17.265Z,58.0
2022-09-09T12:03:16.714Z,58.1
2022-09-09T12:04:22.492Z,58.2
2022-09-09T12:05:17.069Z,58.0
2022-09-09T12:06:16.558Z,58.2
2022-09-09T12:07:16.991Z,58.9
2022-09-09T12:08:16.457Z,58.4
2022-09-09T12:09:16.916Z,57.6
2022-09-09T12:10:17.369Z,56.9
2022-09-09T12:11:16.834Z,55.6
2022-09-09T12:12:17.015Z,55.5
2022-09-09T12:13:16.478Z,56.0
2022-09-09T12:14:16.938Z,56.8
2022-09-09T12:15:17.353Z,57.2
2022-09-09T12:16:16.851Z,56.5
2022-09-09T12:17:17.285Z,57.2
2022-09-09T12:18:16.717Z,56.5
2022-09-09T12:19:17.157Z,57.4
2022-09-09T12:20:16.590Z,57.2
2022-09-09T12:21:17.052Z,57.3
2022-09-09T12:22:16.626Z,58.0
2022-09-09T12:23:17.104Z,57.9
2022-09-09T12:24:16.602Z,56.9
2022-09-09T12:25:23.341Z,55.8
2022-09-09T12:26:16.969Z,56.5
2022-09-09T12:27:17.421Z,55.1
2022-09-09T12:28:16.895Z,55.3
2022-09-09T12:29:17.595Z,54.7
2022-09-09T12:30:17.024Z,53.8
2022-09-09T12:31:16.527Z,53.1
2022-09-09T12:32:17.351Z,53.2
2022-09-09T12:33:16.771Z,53.5
2022-09-09T12:34:17.194Z,53.1
2022-09-09T12:35:17.247Z,54.0
2022-09-09T12:36:16.713Z,54.3
2022-09-09T12:37:17.152Z,54.8
2022-09-09T12:38:16.603Z,54.0
2022-09-09T12:39:17.065Z,54.2
2022-09-09T12:40:16.682Z,54.8
2022-09-09T12:41:17.167Z,55.4
2022-09-09T12:42:16.538Z,55.6
2022-09-09T12:43:17.010Z,55.7
2022-09-09T12:44:16.429Z,56.5
2022-09-09T12:45:16.857Z,56.7
2022-09-09T12:46:17.389Z,56.8
2022-09-09T12:47:16.824Z,56.8
2022-09-09T12:48:17.266Z,57.4
2022-09-09T12:49:16.695Z,57.6
2022-09-09T12:50:17.196Z,59.3
2022-09-09T12:51:16.669Z,61.2
2022-09-09T12:52:16.478Z,61.9
2022-09-09T12:53:16.929Z,62.9
2022-09-09T12:54:17.609Z,62.7
2022-09-09T12:55:17.058Z,62.8
2022-09-09T12:56:16.511Z,62.6
2022-09-09T12:57:16.984Z,63.6
2022-09-09T12:58:16.406Z,63.9
2022-09-09T12:59:16.820Z,66.0
2022-09-09T13:00:17.259Z,68.1
2022-09-09T13:01:16.788Z,69.8
2022-09-09T13:02:17.346Z,72.6
2022-09-09T13:03:16.815Z,74.3
2022-09-09T13:04:17.258Z,78.7
2022-09-09T13:05:16.699Z,81.1
2022-09-09T13:06:17.188Z,83.8
2022-09-09T13:07:16.647Z,87.2
2022-09-09T13:08:17.141Z,88.9
2022-09-09T13:10:36.495Z,91.1
2022-09-09T13:11:16.569Z,91.5
2022-09-09T13:12:17.072Z,92.2
2022-09-09T13:13:16.484Z,92.8
2022-09-09T13:14:16.927Z,92.9
2022-09-09T13:15:17.342Z,92.8
2022-09-09T13:16:16.877Z,93.3
2022-09-09T13:17:17.395Z,93.4
2022-09-09T13:18:16.809Z,93.9
2022-09-09T13:19:17.320Z,94.3
2022-09-09T13:20:16.786Z,94.7
2022-09-09T13:21:17.250Z,94.3
2022-09-09T13:22:17.107Z,93.6